sensor_id;sensor_type;location;lat;lon;timestamp;pressure;altitude;pressure_sealevel;temperature;humidity
79612;BME280;69094;48.154;11.536;2024-01-30T00:01:36;96843.56;;;3.04;64.33
79612;BME280;69094;48.154;11.536;2024-01-30T00:04:02;96852.44;;;3.04;64.60
79612;BME280;69094;48.154;11.536;2024-01-30T00:06:27;96855.88;;;2.99;64.83
79612;BME280;69094;48.154;11.536;2024-01-30T00:08:52;96854.91;;;3.06;64.88
79612;BME280;69094;48.154;11.536;2024-01-30T00:11:18;96853.25;;;3.05;65.05
79612;BME280;69094;48.154;11.536;2024-01-30T00:13:44;96850.91;;;3.08;64.79
79612;BME280;69094;48.154;11.536;2024-01-30T00:16:16;96856.75;;;3.05;65.28
79612;BME280;69094;48.154;11.536;2024-01-30T00:18:44;96852.38;;;2.99;67.65
79612;BME280;69094;48.154;11.536;2024-01-30T00:21:10;96857.41;;;3.29;67.32
79612;BME280;69094;48.154;11.536;2024-01-30T00:23:36;96846.91;;;3.11;65.47
79612;BME280;69094;48.154;11.536;2024-01-30T00:26:01;96854.72;;;2.95;66.03
79612;BME280;69094;48.154;11.536;2024-01-30T00:28:26;96855.13;;;2.87;66.18
79612;BME280;69094;48.154;11.536;2024-01-30T00:30:52;96856.66;;;2.83;66.33
79612;BME280;69094;48.154;11.536;2024-01-30T00:33:17;96850.31;;;2.72;66.76
79612;BME280;69094;48.154;11.536;2024-01-30T00:35:42;96856.59;;;2.78;66.45
79612;BME280;69094;48.154;11.536;2024-01-30T00:38:08;96845.81;;;2.78;65.48
79612;BME280;69094;48.154;11.536;2024-01-30T00:40:33;96846.97;;;2.65;66.15
79612;BME280;69094;48.154;11.536;2024-01-30T00:42:58;96851.97;;;2.73;66.46
79612;BME280;69094;48.154;11.536;2024-01-30T00:45:24;96848.94;;;2.70;66.46
79612;BME280;69094;48.154;11.536;2024-01-30T00:47:49;96853.34;;;2.76;66.38
79612;BME280;69094;48.154;11.536;2024-01-30T00:50:14;96852.78;;;2.74;66.70
79612;BME280;69094;48.154;11.536;2024-01-30T00:52:40;96845.19;;;2.71;66.88
79612;BME280;69094;48.154;11.536;2024-01-30T00:55:07;96856.72;;;2.54;67.43
79612;BME280;69094;48.154;11.536;2024-01-30T00:57:32;96853.56;;;2.57;67.39
79612;BME280;69094;48.154;11.536;2024-01-30T00:59:57;96857.00;;;2.70;66.47
79612;BME280;69094;48.154;11.536;2024-01-30T01:02:23;96853.16;;;2.66;66.66
79612;BME280;69094;48.154;11.536;2024-01-30T01:04:48;96855.03;;;2.65;66.65
79612;BME280;69094;48.154;11.536;2024-01-30T01:07:13;96857.44;;;2.50;67.33
79612;BME280;69094;48.154;11.536;2024-01-30T01:09:39;96848.16;;;2.41;68.11
79612;BME280;69094;48.154;11.536;2024-01-30T01:12:05;96854.59;;;2.40;68.29
79612;BME280;69094;48.154;11.536;2024-01-30T01:14:30;96853.78;;;2.39;68.17
79612;BME280;69094;48.154;11.536;2024-01-30T01:16:55;96853.06;;;2.44;68.16
79612;BME280;69094;48.154;11.536;2024-01-30T01:19:21;96857.13;;;2.46;67.77
79612;BME280;69094;48.154;11.536;2024-01-30T01:21:46;96856.56;;;2.44;67.93
79612;BME280;69094;48.154;11.536;2024-01-30T01:24:12;96849.69;;;2.36;67.76
79612;BME280;69094;48.154;11.536;2024-01-30T01:26:37;96852.06;;;2.50;67.73
79612;BME280;69094;48.154;11.536;2024-01-30T01:29:03;96848.91;;;2.53;67.29
79612;BME280;69094;48.154;11.536;2024-01-30T01:31:38;96862.00;;;2.49;67.90
79612;BME280;69094;48.154;11.536;2024-01-30T01:34:13;96853.88;;;2.44;67.08
79612;BME280;69094;48.154;11.536;2024-01-30T01:36:39;96853.34;;;2.30;67.46
79612;BME280;69094;48.154;11.536;2024-01-30T01:39:05;96848.59;;;2.21;67.56
79612;BME280;69094;48.154;11.536;2024-01-30T01:41:31;96844.78;;;2.17;67.83
79612;BME280;69094;48.154;11.536;2024-01-30T01:43:59;96851.19;;;2.15;68.42
79612;BME280;69094;48.154;11.536;2024-01-30T01:46:30;96851.38;;;2.26;68.22
79612;BME280;69094;48.154;11.536;2024-01-30T01:48:57;96844.78;;;2.33;67.85
79612;BME280;69094;48.154;11.536;2024-01-30T01:51:23;96846.66;;;2.33;67.81
79612;BME280;69094;48.154;11.536;2024-01-30T01:53:50;96844.97;;;2.27;67.84
79612;BME280;69094;48.154;11.536;2024-01-30T01:56:16;96851.19;;;2.15;67.40
79612;BME280;69094;48.154;11.536;2024-01-30T01:58:41;96843.50;;;2.07;67.76
79612;BME280;69094;48.154;11.536;2024-01-30T02:01:09;96837.69;;;1.99;67.80
79612;BME280;69094;48.154;11.536;2024-01-30T02:03:35;96845.03;;;2.03;68.23
79612;BME280;69094;48.154;11.536;2024-01-30T02:06:01;96849.50;;;1.98;68.32
79612;BME280;69094;48.154;11.536;2024-01-30T02:08:27;96848.69;;;1.97;68.29
79612;BME280;69094;48.154;11.536;2024-01-30T02:10:53;96854.75;;;2.04;68.18
79612;BME280;69094;48.154;11.536;2024-01-30T02:13:18;96842.44;;;2.08;68.27
79612;BME280;69094;48.154;11.536;2024-01-30T02:15:49;96847.72;;;2.03;67.88
79612;BME280;69094;48.154;11.536;2024-01-30T02:18:14;96839.44;;;2.05;68.39
79612;BME280;69094;48.154;11.536;2024-01-30T02:20:39;96850.66;;;2.02;69.13
79612;BME280;69094;48.154;11.536;2024-01-30T02:23:06;96839.66;;;2.03;68.87
79612;BME280;69094;48.154;11.536;2024-01-30T02:25:39;96848.44;;;1.99;69.13
79612;BME280;69094;48.154;11.536;2024-01-30T02:28:12;96845.53;;;2.00;68.62
79612;BME280;69094;48.154;11.536;2024-01-30T02:30:38;96848.88;;;2.07;68.02
79612;BME280;69094;48.154;11.536;2024-01-30T02:33:04;96847.19;;;2.18;67.28
79612;BME280;69094;48.154;11.536;2024-01-30T02:35:29;96845.59;;;2.17;67.63
79612;BME280;69094;48.154;11.536;2024-01-30T02:37:54;96852.91;;;2.22;67.22
79612;BME280;69094;48.154;11.536;2024-01-30T02:40:20;96843.13;;;2.15;67.78
79612;BME280;69094;48.154;11.536;2024-01-30T02:42:45;96848.97;;;2.12;67.71
79612;BME280;69094;48.154;11.536;2024-01-30T02:45:11;96846.34;;;2.01;67.96
79612;BME280;69094;48.154;11.536;2024-01-30T02:47:37;96848.81;;;1.90;68.24
79612;BME280;69094;48.154;11.536;2024-01-30T02:50:02;96838.00;;;1.73;69.28
79612;BME280;69094;48.154;11.536;2024-01-30T02:52:28;96843.72;;;1.89;68.28
79612;BME280;69094;48.154;11.536;2024-01-30T02:54:53;96833.69;;;1.84;68.44
79612;BME280;69094;48.154;11.536;2024-01-30T02:57:18;96832.38;;;1.87;68.43
79612;BME280;69094;48.154;11.536;2024-01-30T02:59:44;96826.34;;;1.80;68.39
79612;BME280;69094;48.154;11.536;2024-01-30T03:02:09;96828.31;;;1.84;67.76
79612;BME280;69094;48.154;11.536;2024-01-30T03:04:34;96830.34;;;1.65;68.09
79612;BME280;69094;48.154;11.536;2024-01-30T03:07:00;96828.22;;;1.79;68.74
79612;BME280;69094;48.154;11.536;2024-01-30T03:09:25;96819.19;;;1.85;68.87
79612;BME280;69094;48.154;11.536;2024-01-30T03:11:50;96824.47;;;1.80;68.53
79612;BME280;69094;48.154;11.536;2024-01-30T03:14:16;96827.47;;;1.84;68.32
79612;BME280;69094;48.154;11.536;2024-01-30T03:16:41;96821.78;;;1.80;68.65
79612;BME280;69094;48.154;11.536;2024-01-30T03:19:06;96820.16;;;1.79;68.90
79612;BME280;69094;48.154;11.536;2024-01-30T03:21:34;96825.16;;;1.76;68.74
79612;BME280;69094;48.154;11.536;2024-01-30T03:23:59;96812.00;;;1.74;68.09
79612;BME280;69094;48.154;11.536;2024-01-30T03:26:25;96824.13;;;1.77;68.29
79612;BME280;69094;48.154;11.536;2024-01-30T03:28:50;96818.03;;;1.81;68.22
79612;BME280;69094;48.154;11.536;2024-01-30T03:31:16;96817.31;;;1.86;67.72
79612;BME280;69094;48.154;11.536;2024-01-30T03:33:41;96822.69;;;1.86;67.71
79612;BME280;69094;48.154;11.536;2024-01-30T03:36:07;96818.97;;;1.87;67.08
79612;BME280;69094;48.154;11.536;2024-01-30T03:38:33;96818.38;;;1.85;67.54
79612;BME280;69094;48.154;11.536;2024-01-30T03:40:58;96827.72;;;1.82;68.27
79612;BME280;69094;48.154;11.536;2024-01-30T03:43:24;96810.75;;;1.93;67.76
79612;BME280;69094;48.154;11.536;2024-01-30T03:45:49;96810.53;;;1.95;67.25
79612;BME280;69094;48.154;11.536;2024-01-30T03:48:15;96810.53;;;1.95;67.71
79612;BME280;69094;48.154;11.536;2024-01-30T03:50:40;96803.94;;;2.03;66.97
79612;BME280;69094;48.154;11.536;2024-01-30T03:53:06;96798.25;;;1.99;67.26
79612;BME280;69094;48.154;11.536;2024-01-30T03:55:31;96809.47;;;1.96;66.13
79612;BME280;69094;48.154;11.536;2024-01-30T03:57:56;96807.03;;;1.94;67.16
79612;BME280;69094;48.154;11.536;2024-01-30T04:00:22;96809.63;;;1.89;66.80
79612;BME280;69094;48.154;11.536;2024-01-30T04:02:47;96804.72;;;1.86;66.49
79612;BME280;69094;48.154;11.536;2024-01-30T04:05:13;96820.94;;;1.91;65.72
79612;BME280;69094;48.154;11.536;2024-01-30T04:07:38;96809.94;;;1.93;65.48
79612;BME280;69094;48.154;11.536;2024-01-30T04:10:04;96818.91;;;1.99;64.79
79612;BME280;69094;48.154;11.536;2024-01-30T04:12:31;96813.06;;;2.02;64.15
79612;BME280;69094;48.154;11.536;2024-01-30T04:14:57;96809.19;;;2.09;63.76
79612;BME280;69094;48.154;11.536;2024-01-30T04:17:22;96809.31;;;2.03;63.73
79612;BME280;69094;48.154;11.536;2024-01-30T04:19:47;96819.84;;;2.04;63.81
79612;BME280;69094;48.154;11.536;2024-01-30T04:22:13;96813.69;;;1.92;63.78
79612;BME280;69094;48.154;11.536;2024-01-30T04:24:38;96810.53;;;1.95;63.54
79612;BME280;69094;48.154;11.536;2024-01-30T04:27:04;96806.41;;;2.04;63.80
79612;BME280;69094;48.154;11.536;2024-01-30T04:29:29;96813.97;;;2.07;63.15
79612;BME280;69094;48.154;11.536;2024-01-30T04:31:54;96811.44;;;2.01;63.72
79612;BME280;69094;48.154;11.536;2024-01-30T04:34:20;96808.81;;;1.89;63.96
79612;BME280;69094;48.154;11.536;2024-01-30T04:36:45;96812.63;;;1.93;63.77
79612;BME280;69094;48.154;11.536;2024-01-30T04:39:11;96812.63;;;1.93;64.98
79612;BME280;69094;48.154;11.536;2024-01-30T04:41:37;96807.94;;;2.00;64.47
79612;BME280;69094;48.154;11.536;2024-01-30T04:44:03;96814.19;;;1.89;63.53
79612;BME280;69094;48.154;11.536;2024-01-30T04:46:28;96811.34;;;1.96;63.51
79612;BME280;69094;48.154;11.536;2024-01-30T04:48:54;96810.63;;;2.00;63.54
79612;BME280;69094;48.154;11.536;2024-01-30T04:51:19;96805.72;;;1.97;62.22
79612;BME280;69094;48.154;11.536;2024-01-30T04:53:44;96809.81;;;2.00;63.15
79612;BME280;69094;48.154;11.536;2024-01-30T04:56:10;96811.19;;;2.02;64.51
79612;BME280;69094;48.154;11.536;2024-01-30T04:58:36;96809.13;;;1.92;65.14
79612;BME280;69094;48.154;11.536;2024-01-30T05:01:02;96810.13;;;2.03;64.53
79612;BME280;69094;48.154;11.536;2024-01-30T05:03:27;96815.31;;;1.93;64.08
79612;BME280;69094;48.154;11.536;2024-01-30T05:05:52;96809.47;;;1.96;64.31
79612;BME280;69094;48.154;11.536;2024-01-30T05:08:18;96815.22;;;1.88;66.45
79612;BME280;69094;48.154;11.536;2024-01-30T05:10:43;96819.78;;;1.87;66.40
79612;BME280;69094;48.154;11.536;2024-01-30T05:13:09;96826.03;;;1.93;66.03
79612;BME280;69094;48.154;11.536;2024-01-30T05:15:35;96820.34;;;1.89;66.48
79612;BME280;69094;48.154;11.536;2024-01-30T05:18:01;96828.63;;;1.88;66.98
79612;BME280;69094;48.154;11.536;2024-01-30T05:20:26;96830.31;;;1.77;65.35
79612;BME280;69094;48.154;11.536;2024-01-30T05:22:53;96816.22;;;1.70;65.28
79612;BME280;69094;48.154;11.536;2024-01-30T05:25:19;96825.88;;;1.71;63.85
79612;BME280;69094;48.154;11.536;2024-01-30T05:27:44;96825.53;;;1.79;64.75
79612;BME280;69094;48.154;11.536;2024-01-30T05:30:10;96824.69;;;1.79;63.63
79612;BME280;69094;48.154;11.536;2024-01-30T05:32:36;96825.53;;;1.79;63.89
79612;BME280;69094;48.154;11.536;2024-01-30T05:35:01;96823.06;;;1.78;65.90
79612;BME280;69094;48.154;11.536;2024-01-30T05:37:27;96834.50;;;1.85;64.61
79612;BME280;69094;48.154;11.536;2024-01-30T05:39:52;96833.28;;;1.92;65.64
79612;BME280;69094;48.154;11.536;2024-01-30T05:42:18;96831.56;;;1.86;66.93
79612;BME280;69094;48.154;11.536;2024-01-30T05:44:43;96833.91;;;1.83;67.65
79612;BME280;69094;48.154;11.536;2024-01-30T05:47:08;96837.56;;;2.05;66.16
79612;BME280;69094;48.154;11.536;2024-01-30T05:49:34;96844.00;;;2.04;64.83
79612;BME280;69094;48.154;11.536;2024-01-30T05:52:01;96826.63;;;1.95;65.86
79612;BME280;69094;48.154;11.536;2024-01-30T05:54:27;96840.88;;;1.96;66.83
79612;BME280;69094;48.154;11.536;2024-01-30T05:56:52;96840.66;;;1.85;67.60
79612;BME280;69094;48.154;11.536;2024-01-30T05:59:17;96847.00;;;1.79;66.77
79612;BME280;69094;48.154;11.536;2024-01-30T06:01:47;96841.53;;;1.74;65.78
79612;BME280;69094;48.154;11.536;2024-01-30T06:04:13;96838.59;;;1.76;67.29
79612;BME280;69094;48.154;11.536;2024-01-30T06:06:38;96845.56;;;1.88;67.02
79612;BME280;69094;48.154;11.536;2024-01-30T06:09:03;96843.44;;;1.90;65.87
79612;BME280;69094;48.154;11.536;2024-01-30T06:11:29;96838.34;;;1.89;64.60
79612;BME280;69094;48.154;11.536;2024-01-30T06:13:54;96840.56;;;1.80;64.74
79612;BME280;69094;48.154;11.536;2024-01-30T06:16:19;96840.44;;;1.87;65.30
79612;BME280;69094;48.154;11.536;2024-01-30T06:18:46;96843.56;;;1.84;65.42
79612;BME280;69094;48.154;11.536;2024-01-30T06:21:13;96843.47;;;1.79;65.29
79612;BME280;69094;48.154;11.536;2024-01-30T06:23:38;96848.13;;;1.83;64.64
79612;BME280;69094;48.154;11.536;2024-01-30T06:26:04;96845.25;;;1.73;65.93
79612;BME280;69094;48.154;11.536;2024-01-30T06:28:30;96847.13;;;1.72;65.38
79612;BME280;69094;48.154;11.536;2024-01-30T06:30:55;96844.47;;;1.61;65.26
79612;BME280;69094;48.154;11.536;2024-01-30T06:33:20;96854.38;;;1.60;64.89
79612;BME280;69094;48.154;11.536;2024-01-30T06:35:46;96849.97;;;1.54;64.77
79612;BME280;69094;48.154;11.536;2024-01-30T06:38:11;96852.19;;;1.57;64.69
79612;BME280;69094;48.154;11.536;2024-01-30T06:40:38;96853.09;;;1.63;64.42
79612;BME280;69094;48.154;11.536;2024-01-30T06:43:04;96862.53;;;1.65;64.25
79612;BME280;69094;48.154;11.536;2024-01-30T06:45:30;96861.13;;;1.63;64.27
79612;BME280;69094;48.154;11.536;2024-01-30T06:47:55;96865.72;;;1.91;64.32
79612;BME280;69094;48.154;11.536;2024-01-30T06:50:20;96863.63;;;1.93;65.27
79612;BME280;69094;48.154;11.536;2024-01-30T06:52:46;96867.09;;;2.05;64.42
79612;BME280;69094;48.154;11.536;2024-01-30T06:55:11;96872.53;;;2.22;64.35
79612;BME280;69094;48.154;11.536;2024-01-30T06:57:37;96860.63;;;2.47;63.04
79612;BME280;69094;48.154;11.536;2024-01-30T07:00:03;96867.84;;;2.92;61.07
79612;BME280;69094;48.154;11.536;2024-01-30T07:02:28;96866.84;;;3.32;60.72
79612;BME280;69094;48.154;11.536;2024-01-30T07:04:54;96865.56;;;3.73;59.51
79612;BME280;69094;48.154;11.536;2024-01-30T07:07:22;96865.03;;;4.20;57.49
79612;BME280;69094;48.154;11.536;2024-01-30T07:09:48;96866.31;;;4.67;55.75
79612;BME280;69094;48.154;11.536;2024-01-30T07:12:17;96869.50;;;4.91;54.62
79612;BME280;69094;48.154;11.536;2024-01-30T07:14:43;96861.50;;;5.01;55.32
79612;BME280;69094;48.154;11.536;2024-01-30T07:17:08;96870.13;;;5.35;54.09
79612;BME280;69094;48.154;11.536;2024-01-30T07:19:33;96869.09;;;5.84;52.69
79612;BME280;69094;48.154;11.536;2024-01-30T07:22:00;96861.72;;;6.32;50.21
79612;BME280;69094;48.154;11.536;2024-01-30T07:24:25;96866.41;;;6.62;48.75
79612;BME280;69094;48.154;11.536;2024-01-30T07:26:51;96864.25;;;6.95;48.95
79612;BME280;69094;48.154;11.536;2024-01-30T07:29:16;96873.75;;;7.23;47.53
79612;BME280;69094;48.154;11.536;2024-01-30T07:31:41;96869.41;;;7.12;47.40
79612;BME280;69094;48.154;11.536;2024-01-30T07:34:07;96869.41;;;7.32;46.57
79612;BME280;69094;48.154;11.536;2024-01-30T07:36:32;96875.88;;;7.52;45.56
79612;BME280;69094;48.154;11.536;2024-01-30T07:38:58;96871.44;;;7.97;44.31
79612;BME280;69094;48.154;11.536;2024-01-30T07:41:23;96864.72;;;7.84;45.17
79612;BME280;69094;48.154;11.536;2024-01-30T07:43:50;96866.00;;;8.12;44.49
79612;BME280;69094;48.154;11.536;2024-01-30T07:46:15;96874.91;;;8.78;42.83
79612;BME280;69094;48.154;11.536;2024-01-30T07:48:41;96869.25;;;9.09;41.44
79612;BME280;69094;48.154;11.536;2024-01-30T07:51:06;96883.19;;;9.31;41.53
79612;BME280;69094;48.154;11.536;2024-01-30T07:53:32;96870.03;;;9.14;41.67
79612;BME280;69094;48.154;11.536;2024-01-30T07:55:57;96881.19;;;9.47;41.25
79612;BME280;69094;48.154;11.536;2024-01-30T07:58:22;96887.81;;;9.65;40.76
79612;BME280;69094;48.154;11.536;2024-01-30T08:00:49;96879.09;;;9.92;39.87
79612;BME280;69094;48.154;11.536;2024-01-30T08:03:14;96876.09;;;10.42;38.95
79612;BME280;69094;48.154;11.536;2024-01-30T08:05:41;96894.84;;;9.95;39.37
79612;BME280;69094;48.154;11.536;2024-01-30T08:08:07;96880.53;;;9.84;39.92
79612;BME280;69094;48.154;11.536;2024-01-30T08:10:32;96885.69;;;9.86;41.40
79612;BME280;69094;48.154;11.536;2024-01-30T08:12:58;96888.50;;;9.76;41.22
79612;BME280;69094;48.154;11.536;2024-01-30T08:15:23;96886.84;;;10.52;38.76
79612;BME280;69094;48.154;11.536;2024-01-30T08:17:48;96887.31;;;11.16;36.83
79612;BME280;69094;48.154;11.536;2024-01-30T08:20:14;96896.75;;;11.05;37.37
79612;BME280;69094;48.154;11.536;2024-01-30T08:22:40;96887.31;;;11.81;35.04
79612;BME280;69094;48.154;11.536;2024-01-30T08:25:06;96890.84;;;11.82;34.36
79612;BME280;69094;48.154;11.536;2024-01-30T08:27:32;96890.88;;;11.49;35.15
79612;BME280;69094;48.154;11.536;2024-01-30T08:29:57;96886.88;;;11.74;35.52
79612;BME280;69094;48.154;11.536;2024-01-30T08:32:23;96884.44;;;12.05;35.65
79612;BME280;69094;48.154;11.536;2024-01-30T08:34:49;96890.50;;;12.02;36.28
79612;BME280;69094;48.154;11.536;2024-01-30T08:37:14;96883.88;;;11.76;36.58
79612;BME280;69094;48.154;11.536;2024-01-30T08:39:42;96881.94;;;12.23;36.34
79612;BME280;69094;48.154;11.536;2024-01-30T08:42:08;96883.03;;;12.22;36.11
79612;BME280;69094;48.154;11.536;2024-01-30T08:44:33;96885.28;;;12.20;36.01
79612;BME280;69094;48.154;11.536;2024-01-30T08:46:58;96885.25;;;12.34;34.80
79612;BME280;69094;48.154;11.536;2024-01-30T08:49:24;96884.81;;;12.54;33.52
79612;BME280;69094;48.154;11.536;2024-01-30T08:51:49;96880.69;;;12.29;33.91
79612;BME280;69094;48.154;11.536;2024-01-30T08:54:15;96894.34;;;12.57;35.36
79612;BME280;69094;48.154;11.536;2024-01-30T08:56:41;96891.84;;;13.33;30.77
79612;BME280;69094;48.154;11.536;2024-01-30T08:59:06;96885.97;;;13.71;29.93
79612;BME280;69094;48.154;11.536;2024-01-30T09:01:31;96892.63;;;13.78;29.73
79612;BME280;69094;48.154;11.536;2024-01-30T09:03:57;96893.50;;;14.19;29.20
79612;BME280;69094;48.154;11.536;2024-01-30T09:06:22;96894.88;;;14.08;29.79
79612;BME280;69094;48.154;11.536;2024-01-30T09:08:49;96901.50;;;14.15;29.19
79612;BME280;69094;48.154;11.536;2024-01-30T09:11:15;96901.16;;;15.05;28.51
79612;BME280;69094;48.154;11.536;2024-01-30T09:13:41;96896.88;;;14.64;28.42
79612;BME280;69094;48.154;11.536;2024-01-30T09:16:07;96905.25;;;14.19;29.68
79612;BME280;69094;48.154;11.536;2024-01-30T09:18:32;96911.38;;;14.25;29.38
79612;BME280;69094;48.154;11.536;2024-01-30T09:20:58;96907.91;;;14.42;29.43
79612;BME280;69094;48.154;11.536;2024-01-30T09:23:23;96901.91;;;14.80;29.02
79612;BME280;69094;48.154;11.536;2024-01-30T09:25:49;96911.94;;;14.93;28.54
79612;BME280;69094;48.154;11.536;2024-01-30T09:28:16;96910.78;;;14.85;28.88
79612;BME280;69094;48.154;11.536;2024-01-30T09:30:42;96910.19;;;15.32;28.60
79612;BME280;69094;48.154;11.536;2024-01-30T09:33:07;96914.22;;;15.52;28.19
79612;BME280;69094;48.154;11.536;2024-01-30T09:35:33;96915.50;;;15.55;27.65
79612;BME280;69094;48.154;11.536;2024-01-30T09:37:59;96906.97;;;15.74;27.32
79612;BME280;69094;48.154;11.536;2024-01-30T09:40:25;96913.41;;;15.60;27.37
79612;BME280;69094;48.154;11.536;2024-01-30T09:42:51;96905.84;;;16.22;26.45
79612;BME280;69094;48.154;11.536;2024-01-30T09:45:19;96916.00;;;15.74;27.14
79612;BME280;69094;48.154;11.536;2024-01-30T09:47:46;96914.56;;;16.24;26.29
79612;BME280;69094;48.154;11.536;2024-01-30T09:50:15;96918.88;;;15.95;27.48
79612;BME280;69094;48.154;11.536;2024-01-30T09:52:42;96917.50;;;16.19;26.25
79612;BME280;69094;48.154;11.536;2024-01-30T09:55:09;96916.09;;;16.04;27.50
79612;BME280;69094;48.154;11.536;2024-01-30T09:57:35;96913.06;;;15.88;27.96
79612;BME280;69094;48.154;11.536;2024-01-30T10:00:04;96918.03;;;16.50;26.79
79612;BME280;69094;48.154;11.536;2024-01-30T10:02:32;96914.47;;;16.88;26.26
79612;BME280;69094;48.154;11.536;2024-01-30T10:04:57;96918.31;;;17.17;26.46
79612;BME280;69094;48.154;11.536;2024-01-30T10:07:23;96914.53;;;17.84;25.83
79612;BME280;69094;48.154;11.536;2024-01-30T10:09:48;96913.66;;;17.72;25.41
79612;BME280;69094;48.154;11.536;2024-01-30T10:12:14;96922.06;;;17.33;26.14
79612;BME280;69094;48.154;11.536;2024-01-30T10:14:40;96910.00;;;17.05;26.74
79612;BME280;69094;48.154;11.536;2024-01-30T10:17:09;96919.22;;;17.63;27.51
79612;BME280;69094;48.154;11.536;2024-01-30T10:19:36;96908.41;;;18.12;25.04
79612;BME280;69094;48.154;11.536;2024-01-30T10:22:03;96917.19;;;17.93;25.95
79612;BME280;69094;48.154;11.536;2024-01-30T10:24:28;96904.66;;;18.29;25.01
79612;BME280;69094;48.154;11.536;2024-01-30T10:26:55;96899.88;;;17.93;25.95
79612;BME280;69094;48.154;11.536;2024-01-30T10:29:20;96909.44;;;16.90;27.07
79612;BME280;69094;48.154;11.536;2024-01-30T10:31:46;96902.03;;;17.12;26.57
79612;BME280;69094;48.154;11.536;2024-01-30T10:34:12;96893.34;;;16.80;27.21
79612;BME280;69094;48.154;11.536;2024-01-30T10:36:43;96893.06;;;16.64;27.66
79612;BME280;69094;48.154;11.536;2024-01-30T10:39:13;96887.84;;;17.01;26.88
79612;BME280;69094;48.154;11.536;2024-01-30T10:41:47;96881.69;;;17.25;25.33
79612;BME280;69094;48.154;11.536;2024-01-30T10:44:18;96885.69;;;17.49;25.59
79612;BME280;69094;48.154;11.536;2024-01-30T10:46:50;96878.81;;;18.58;24.82
79612;BME280;69094;48.154;11.536;2024-01-30T10:49:20;96879.66;;;18.71;23.75
79612;BME280;69094;48.154;11.536;2024-01-30T10:51:47;96879.38;;;19.13;23.16
79612;BME280;69094;48.154;11.536;2024-01-30T10:54:14;96872.16;;;18.71;22.88
79612;BME280;69094;48.154;11.536;2024-01-30T10:56:43;96859.88;;;18.69;23.97
79612;BME280;69094;48.154;11.536;2024-01-30T10:59:09;96864.53;;;19.05;23.01
79612;BME280;69094;48.154;11.536;2024-01-30T11:01:35;96857.22;;;19.37;22.92
79612;BME280;69094;48.154;11.536;2024-01-30T11:04:01;96854.13;;;19.67;22.33
79612;BME280;69094;48.154;11.536;2024-01-30T11:06:26;96857.03;;;19.30;22.86
79612;BME280;69094;48.154;11.536;2024-01-30T11:09:05;96852.03;;;19.64;22.18
79612;BME280;69094;48.154;11.536;2024-01-30T11:11:57;96854.31;;;19.74;22.08
79612;BME280;69094;48.154;11.536;2024-01-30T11:14:27;96857.66;;;19.96;21.80
79612;BME280;69094;48.154;11.536;2024-01-30T11:16:57;96848.88;;;19.50;22.70
79612;BME280;69094;48.154;11.536;2024-01-30T11:19:24;96850.59;;;19.26;23.72
79612;BME280;69094;48.154;11.536;2024-01-30T11:21:55;96847.09;;;19.42;22.31
79612;BME280;69094;48.154;11.536;2024-01-30T11:24:23;96840.03;;;20.00;21.48
79612;BME280;69094;48.154;11.536;2024-01-30T11:26:50;96836.03;;;20.30;20.51
79612;BME280;69094;48.154;11.536;2024-01-30T11:29:20;96836.19;;;20.21;20.52
79612;BME280;69094;48.154;11.536;2024-01-30T11:31:56;96833.53;;;19.93;21.92
79612;BME280;69094;48.154;11.536;2024-01-30T11:34:21;96825.03;;;20.33;20.73
79612;BME280;69094;48.154;11.536;2024-01-30T11:36:55;96828.97;;;19.28;22.70
79612;BME280;69094;48.154;11.536;2024-01-30T11:39:25;96832.94;;;19.03;23.48
79612;BME280;69094;48.154;11.536;2024-01-30T11:41:52;96829.13;;;19.48;22.55
79612;BME280;69094;48.154;11.536;2024-01-30T11:44:22;96829.84;;;19.89;23.37
79612;BME280;69094;48.154;11.536;2024-01-30T11:46:48;96824.59;;;19.55;23.79
79612;BME280;69094;48.154;11.536;2024-01-30T11:49:14;96821.63;;;19.92;22.77
79612;BME280;69094;48.154;11.536;2024-01-30T11:51:39;96815.00;;;19.65;21.98
79612;BME280;69094;48.154;11.536;2024-01-30T11:54:05;96828.94;;;19.41;21.95
79612;BME280;69094;48.154;11.536;2024-01-30T11:56:30;96818.53;;;18.81;23.36
79612;BME280;69094;48.154;11.536;2024-01-30T11:58:56;96824.06;;;18.32;23.76
79612;BME280;69094;48.154;11.536;2024-01-30T12:01:21;96816.72;;;18.12;23.85
79612;BME280;69094;48.154;11.536;2024-01-30T12:03:50;96813.72;;;18.41;23.39
79612;BME280;69094;48.154;11.536;2024-01-30T12:06:16;96807.06;;;19.07;23.66
79612;BME280;69094;48.154;11.536;2024-01-30T12:08:42;96810.69;;;20.28;21.16
79612;BME280;69094;48.154;11.536;2024-01-30T12:11:07;96812.63;;;21.49;21.04
79612;BME280;69094;48.154;11.536;2024-01-30T12:13:33;96805.38;;;22.29;19.97
79612;BME280;69094;48.154;11.536;2024-01-30T12:15:59;96802.41;;;21.53;18.74
79612;BME280;69094;48.154;11.536;2024-01-30T12:18:24;96797.22;;;21.13;19.13
79612;BME280;69094;48.154;11.536;2024-01-30T12:20:59;96799.59;;;20.75;19.24
79612;BME280;69094;48.154;11.536;2024-01-30T12:23:26;96800.94;;;20.65;19.60
79612;BME280;69094;48.154;11.536;2024-01-30T12:25:52;96793.47;;;19.71;20.83
79612;BME280;69094;48.154;11.536;2024-01-30T12:28:20;96790.13;;;19.93;21.84
79612;BME280;69094;48.154;11.536;2024-01-30T12:30:46;96785.56;;;19.13;22.32
79612;BME280;69094;48.154;11.536;2024-01-30T12:33:18;96786.03;;;18.38;22.63
79612;BME280;69094;48.154;11.536;2024-01-30T12:35:47;96779.25;;;18.60;23.47
79612;BME280;69094;48.154;11.536;2024-01-30T12:38:14;96780.41;;;17.85;24.87
79612;BME280;69094;48.154;11.536;2024-01-30T12:40:39;96780.84;;;17.75;23.53
79612;BME280;69094;48.154;11.536;2024-01-30T12:43:05;96778.84;;;17.96;23.84
79612;BME280;69094;48.154;11.536;2024-01-30T12:45:30;96770.28;;;17.64;22.90
79612;BME280;69094;48.154;11.536;2024-01-30T12:47:55;96772.84;;;17.49;24.51
79612;BME280;69094;48.154;11.536;2024-01-30T12:50:21;96772.38;;;17.80;23.10
79612;BME280;69094;48.154;11.536;2024-01-30T12:52:47;96762.09;;;18.14;23.21